Time;durP1;ratioP1;P1;durP2;ratioP2;P2;SDS_P1;SDS_P2;PMS_P1;PMS_P2;Temp;Humidity;BMP_temperature;BMP_pressure;BME280_temperature;BME280_humidity;BME280_pressure;Samples;Min_cycle;Max_cycle;Signal;HPM_P1;HPM_P2
2022/11/30 00:01:12;;;;;;;47.50;27.08;;;7.00;99.90;;;;;;5021547;28;20072;-85
2022/11/30 00:03:38;;;;;;;48.97;27.92;;;7.10;99.90;;;;;;5050773;28;20040;-85
2022/11/30 00:06:06;;;;;;;50.03;27.83;;;6.90;99.90;;;;;;5064950;28;20135;-86
2022/11/30 00:08:31;;;;;;;57.85;27.85;;;6.80;99.90;;;;;;5063526;28;20040;-84
2022/11/30 00:10:57;;;;;;;51.53;27.58;;;6.80;99.90;;;;;;5048910;28;20091;-85
2022/11/30 00:13:22;;;;;;;62.67;28.13;;;6.70;99.90;;;;;;5023767;28;20382;-85
2022/11/30 00:15:48;;;;;;;63.50;29.20;;;6.70;99.90;;;;;;5018397;28;20052;-85
2022/11/30 00:18:16;;;;;;;61.08;28.73;;;6.60;99.90;;;;;;5021965;28;20041;-85
2022/11/30 00:20:43;;;;;;;63.50;30.08;;;6.50;99.90;;;;;;5049382;28;20461;-86
2022/11/30 00:23:09;;;;;;;65.30;29.52;;;6.50;99.90;;;;;;5018301;28;20458;-84
2022/11/30 00:25:40;;;;;;;67.63;31.50;;;6.50;99.90;;;;;;5048475;28;20066;-85
2022/11/30 00:28:06;;;;;;;65.07;30.23;;;6.50;99.90;;;;;;5025938;28;20041;-85
2022/11/30 00:30:31;;;;;;;73.25;32.00;;;6.50;99.90;;;;;;5053769;28;20045;-84
2022/11/30 00:32:57;;;;;;;75.45;32.35;;;6.60;99.90;;;;;;5021411;28;20045;-84
2022/11/30 00:35:23;;;;;;;74.15;30.92;;;6.70;99.90;;;;;;5070182;28;20044;-85
2022/11/30 00:37:49;;;;;;;75.57;32.92;;;6.60;99.90;;;;;;5037072;28;20333;-86
2022/11/30 00:40:14;;;;;;;72.25;30.75;;;6.60;99.90;;;;;;5039385;28;20060;-85
2022/11/30 00:42:41;;;;;;;72.47;30.90;;;6.60;99.90;;;;;;5040503;28;20396;-85
2022/11/30 00:45:07;;;;;;;72.75;30.02;;;6.60;99.90;;;;;;5022084;28;20029;-85
2022/11/30 00:47:32;;;;;;;82.32;32.58;;;6.50;99.90;;;;;;5071119;28;20051;-86
2022/11/30 00:49:58;;;;;;;69.88;31.02;;;6.40;99.90;;;;;;5022961;28;20052;-85
2022/11/30 00:52:24;;;;;;;71.10;30.40;;;6.30;99.90;;;;;;5024190;28;20033;-85
2022/11/30 00:54:49;;;;;;;71.47;31.67;;;6.30;99.90;;;;;;5019900;28;20401;-85
2022/11/30 00:57:15;;;;;;;69.22;31.67;;;6.40;99.90;;;;;;5053651;28;20476;-85
2022/11/30 00:59:40;;;;;;;78.53;32.45;;;6.30;99.90;;;;;;5022278;28;20413;-85
2022/11/30 01:02:07;;;;;;;73.05;32.47;;;6.40;99.90;;;;;;5023302;28;20040;-84
2022/11/30 01:04:33;;;;;;;76.15;32.60;;;6.40;99.90;;;;;;5023164;28;20520;-85
2022/11/30 01:06:58;;;;;;;71.53;32.03;;;6.30;99.90;;;;;;5022600;28;20032;-84
2022/11/30 01:09:24;;;;;;;71.15;31.77;;;6.40;99.90;;;;;;5019944;28;20047;-86
2022/11/30 01:11:50;;;;;;;73.40;31.77;;;6.40;99.90;;;;;;5073664;28;20045;-85
2022/11/30 01:14:15;;;;;;;72.78;31.33;;;6.40;99.90;;;;;;5071348;28;20047;-86
2022/11/30 01:16:42;;;;;;;85.82;33.47;;;6.50;99.90;;;;;;5022786;28;20408;-85
2022/11/30 01:19:07;;;;;;;69.28;30.65;;;6.60;99.90;;;;;;5042329;28;20041;-84
2022/11/30 01:21:33;;;;;;;77.55;32.65;;;6.50;99.90;;;;;;5053308;28;20162;-85
2022/11/30 01:24:01;;;;;;;67.40;31.83;;;6.40;99.90;;;;;;5038858;28;20241;-85
2022/11/30 01:26:27;;;;;;;68.22;32.28;;;6.60;99.90;;;;;;5051849;28;20361;-85
2022/11/30 01:28:54;;;;;;;65.30;29.88;;;6.50;99.90;;;;;;5026887;28;20097;-85
2022/11/30 01:31:22;;;;;;;59.92;29.95;;;6.50;99.90;;;;;;5026570;28;20032;-84
2022/11/30 01:33:50;;;;;;;62.92;30.67;;;6.40;99.90;;;;;;5037099;28;20083;-85
2022/11/30 01:36:22;;;;;;;68.68;31.85;;;6.50;99.90;;;;;;5021111;28;21143;-83
2022/11/30 01:38:50;;;;;;;60.65;31.52;;;6.40;99.90;;;;;;5023898;28;20194;-85
2022/11/30 01:41:20;;;;;;;60.13;32.33;;;6.50;99.90;;;;;;5036192;28;20386;-85
2022/11/30 01:43:52;;;;;;;65.20;31.23;;;6.60;99.90;;;;;;5036944;28;20512;-85
2022/11/30 01:46:29;;;;;;;58.97;31.77;;;6.40;99.90;;;;;;5029940;28;20033;-84
2022/11/30 01:49:09;;;;;;;63.53;32.42;;;6.50;99.90;;;;;;5024530;28;20054;-85
2022/11/30 01:51:37;;;;;;;64.10;31.77;;;6.50;99.90;;;;;;5037075;28;20045;-86
2022/11/30 01:54:09;;;;;;;63.38;32.75;;;6.50;99.90;;;;;;5018408;28;20140;-85
2022/11/30 01:56:38;;;;;;;65.03;32.75;;;6.40;99.90;;;;;;5020147;28;20467;-85
2022/11/30 01:59:03;;;;;;;68.75;33.10;;;6.50;99.90;;;;;;5051175;28;20047;-86
2022/11/30 02:01:29;;;;;;;68.35;32.58;;;6.50;99.90;;;;;;5051137;28;20041;-84
2022/11/30 02:04:01;;;;;;;68.53;31.33;;;6.40;99.90;;;;;;5026076;28;20063;-85
2022/11/30 02:06:28;;;;;;;64.95;32.38;;;6.50;99.90;;;;;;5037453;28;20994;-85
2022/11/30 02:08:54;;;;;;;68.03;32.33;;;6.60;99.90;;;;;;5018851;28;20162;-85
2022/11/30 02:11:20;;;;;;;64.00;31.73;;;6.50;99.90;;;;;;5028188;28;20044;-85
2022/11/30 02:14:17;;;;;;;65.72;33.80;;;6.50;99.90;;;;;;5021544;28;20236;-85
2022/11/30 02:17:00;;;;;;;63.22;31.67;;;6.50;99.90;;;;;;5048391;28;20096;-85
2022/11/30 02:19:47;;;;;;;73.28;33.00;;;6.50;99.90;;;;;;5019618;28;20342;-85
2022/11/30 02:22:25;;;;;;;69.35;33.20;;;6.50;99.90;;;;;;5068046;28;20037;-85
2022/11/30 02:25:15;;;;;;;58.13;28.10;;;6.40;99.90;;;;;;5020133;28;20059;-85
2022/11/30 02:28:06;;;;;;;52.35;26.13;;;6.40;99.90;;;;;;5037969;28;20029;-85
2022/11/30 02:30:36;;;;;;;56.47;28.83;;;6.40;99.90;;;;;;5019389;28;20045;-85
2022/11/30 02:33:15;;;;;;;56.35;27.33;;;6.60;99.90;;;;;;5036274;28;20115;-86
2022/11/30 02:35:46;;;;;;;64.47;28.02;;;6.50;99.90;;;;;;5036202;28;20048;-85
2022/11/30 02:38:13;;;;;;;58.15;27.77;;;6.50;99.90;;;;;;5016520;28;20401;-85
2022/11/30 02:40:38;;;;;;;57.60;27.17;;;6.40;99.90;;;;;;5037217;28;20072;-85
2022/11/30 02:43:05;;;;;;;57.55;27.30;;;6.50;99.90;;;;;;5049078;28;20029;-85
2022/11/30 02:45:34;;;;;;;66.65;29.30;;;6.60;99.90;;;;;;5025091;28;21154;-85
2022/11/30 02:48:11;;;;;;;65.47;29.90;;;6.60;99.90;;;;;;5068971;28;20087;-86
2022/11/30 02:50:44;;;;;;;58.63;28.35;;;6.50;99.90;;;;;;5034602;28;20032;-84
2022/11/30 02:53:10;;;;;;;56.67;27.20;;;6.60;99.90;;;;;;5033930;28;20056;-83
2022/11/30 02:55:36;;;;;;;57.22;27.30;;;6.60;99.90;;;;;;5021872;28;20384;-84
2022/11/30 02:58:02;;;;;;;63.42;29.48;;;6.60;99.90;;;;;;5019192;28;20136;-85
2022/11/30 03:00:28;;;;;;;56.50;27.08;;;6.60;99.90;;;;;;5050849;28;20136;-84
2022/11/30 03:02:54;;;;;;;57.13;27.30;;;6.60;99.90;;;;;;5020006;28;20318;-85
2022/11/30 03:05:22;;;;;;;59.13;27.58;;;6.60;99.90;;;;;;5051853;28;20036;-85
2022/11/30 03:07:48;;;;;;;59.28;27.35;;;6.50;99.90;;;;;;5019459;28;20033;-85
2022/11/30 03:10:14;;;;;;;57.15;26.85;;;6.60;99.90;;;;;;5019038;28;20064;-85
2022/11/30 03:12:40;;;;;;;54.63;25.98;;;6.60;99.90;;;;;;5026560;28;20384;-85
2022/11/30 03:15:06;;;;;;;57.67;28.48;;;6.60;99.90;;;;;;5051622;28;20068;-84
2022/11/30 03:17:32;;;;;;;54.75;27.25;;;6.70;99.90;;;;;;5049927;28;20094;-85
2022/11/30 03:19:57;;;;;;;56.60;26.90;;;6.60;99.90;;;;;;5018083;28;20423;-85
2022/11/30 03:22:26;;;;;;;57.70;26.67;;;6.60;99.90;;;;;;5019008;28;20055;-85
2022/11/30 03:24:52;;;;;;;54.75;26.02;;;6.70;99.90;;;;;;5049363;28;20033;-85
2022/11/30 03:27:17;;;;;;;58.72;27.50;;;6.70;99.90;;;;;;5049477;28;20047;-84
2022/11/30 03:29:43;;;;;;;52.97;26.15;;;6.60;99.90;;;;;;5035066;28;20250;-85
2022/11/30 03:32:09;;;;;;;51.13;27.30;;;6.70;99.90;;;;;;5035414;28;20048;-85
2022/11/30 03:34:34;;;;;;;54.38;26.38;;;6.80;99.90;;;;;;5048238;28;20047;-85
2022/11/30 03:37:00;;;;;;;62.33;28.33;;;6.80;99.90;;;;;;5018277;28;20120;-85
2022/11/30 03:39:26;;;;;;;57.10;28.05;;;6.70;99.90;;;;;;5046900;28;20045;-85
2022/11/30 03:41:52;;;;;;;58.42;28.00;;;6.80;99.90;;;;;;5035551;28;20436;-85
2022/11/30 03:44:17;;;;;;;62.40;27.25;;;6.70;99.90;;;;;;5050024;28;20484;-84
2022/11/30 03:46:43;;;;;;;58.83;27.83;;;6.80;99.90;;;;;;5019414;28;20131;-86
2022/11/30 03:49:09;;;;;;;58.13;27.08;;;6.70;99.90;;;;;;5052288;28;20087;-85
2022/11/30 03:51:34;;;;;;;60.92;27.63;;;6.70;99.90;;;;;;5022183;28;20048;-85
2022/11/30 03:54:00;;;;;;;54.80;27.55;;;6.80;99.90;;;;;;5019940;28;21180;-85
2022/11/30 03:56:29;;;;;;;53.30;26.85;;;6.70;99.90;;;;;;5051388;28;20053;-85
2022/11/30 03:58:54;;;;;;;55.88;28.00;;;6.80;99.90;;;;;;5034133;28;20040;-85
2022/11/30 04:01:22;;;;;;;61.45;27.83;;;6.70;99.90;;;;;;5023919;28;20040;-84
2022/11/30 04:03:49;;;;;;;55.97;27.52;;;6.80;99.90;;;;;;5031561;28;20515;-83
2022/11/30 04:06:16;;;;;;;52.78;25.88;;;6.80;99.90;;;;;;5026558;28;20041;-84
2022/11/30 04:08:45;;;;;;;59.42;26.60;;;6.80;99.90;;;;;;5055075;28;20041;-85
2022/11/30 04:11:14;;;;;;;57.58;26.63;;;6.80;99.90;;;;;;5028130;28;20046;-85
2022/11/30 04:13:41;;;;;;;62.60;28.83;;;6.80;99.90;;;;;;5040626;28;20072;-85
2022/11/30 04:16:07;;;;;;;63.28;29.52;;;6.70;99.90;;;;;;5030918;28;20117;-85
2022/11/30 04:18:35;;;;;;;63.95;29.05;;;6.70;99.90;;;;;;5027418;28;20242;-85
2022/11/30 04:21:02;;;;;;;67.72;29.83;;;6.80;99.90;;;;;;5022550;28;20268;-85
2022/11/30 04:23:36;;;;;;;73.57;29.23;;;6.80;99.90;;;;;;5023383;28;20079;-85
2022/11/30 04:26:07;;;;;;;68.20;29.00;;;6.90;99.90;;;;;;5055007;28;20029;-85
2022/11/30 04:28:34;;;;;;;65.13;28.23;;;6.80;99.90;;;;;;5023159;28;20044;-85
2022/11/30 04:31:01;;;;;;;68.63;28.95;;;6.80;99.90;;;;;;5024724;28;20127;-85
2022/11/30 04:33:27;;;;;;;65.25;28.58;;;6.80;99.90;;;;;;5056110;28;20519;-85
2022/11/30 04:36:00;;;;;;;61.83;28.83;;;6.90;99.90;;;;;;5072089;28;20044;-86
2022/11/30 04:38:26;;;;;;;60.60;27.52;;;6.90;99.90;;;;;;5040536;28;20128;-85
2022/11/30 04:40:53;;;;;;;58.83;26.60;;;6.90;99.90;;;;;;5026242;28;20029;-85
2022/11/30 04:43:19;;;;;;;66.05;26.75;;;6.90;99.90;;;;;;5055801;28;20032;-85
2022/11/30 04:45:45;;;;;;;63.22;26.73;;;6.80;99.90;;;;;;5043114;28;20146;-85
2022/11/30 04:48:12;;;;;;;61.25;26.30;;;6.80;99.90;;;;;;5057879;28;20083;-86
2022/11/30 04:50:38;;;;;;;61.95;26.35;;;6.80;99.90;;;;;;5040545;28;20098;-84
2022/11/30 04:53:05;;;;;;;59.92;24.70;;;6.80;99.90;;;;;;5039874;28;20049;-85
2022/11/30 04:55:31;;;;;;;62.70;25.52;;;6.80;99.90;;;;;;5022522;28;20037;-84
2022/11/30 04:57:57;;;;;;;65.10;26.40;;;6.80;99.90;;;;;;5026056;28;20069;-86
2022/11/30 05:00:23;;;;;;;63.92;26.02;;;6.90;99.90;;;;;;5055117;28;20568;-86
2022/11/30 05:02:49;;;;;;;64.47;25.33;;;6.80;99.90;;;;;;5024336;28;20211;-85
2022/11/30 05:05:14;;;;;;;72.00;26.13;;;6.80;99.90;;;;;;5056949;28;20215;-84
2022/11/30 05:07:40;;;;;;;63.70;25.48;;;6.80;99.90;;;;;;5057009;28;20072;-85
2022/11/30 05:10:10;;;;;;;66.32;25.55;;;6.80;99.90;;;;;;5026707;28;20289;-85
2022/11/30 05:12:35;;;;;;;56.65;24.25;;;6.80;99.90;;;;;;5036871;28;20386;-86
2022/11/30 05:15:01;;;;;;;83.47;28.88;;;6.70;99.90;;;;;;5022361;28;20065;-84
2022/11/30 05:17:27;;;;;;;77.80;28.92;;;6.80;99.90;;;;;;5015336;28;20049;-86
2022/11/30 05:19:53;;;;;;;83.68;29.90;;;6.70;99.90;;;;;;5022503;28;20471;-85
2022/11/30 05:22:18;;;;;;;85.35;32.40;;;6.70;99.90;;;;;;5024131;28;20037;-85
2022/11/30 05:24:44;;;;;;;78.75;31.90;;;6.60;99.90;;;;;;5037467;28;20056;-85
2022/11/30 05:27:10;;;;;;;88.32;31.52;;;6.70;99.90;;;;;;5052148;28;20048;-85
2022/11/30 05:29:38;;;;;;;78.18;28.77;;;6.60;99.90;;;;;;5018733;28;20215;-85
2022/11/30 05:32:04;;;;;;;90.05;30.27;;;6.60;99.90;;;;;;5020575;28;20190;-85
2022/11/30 05:34:30;;;;;;;81.72;31.65;;;6.70;99.90;;;;;;5051457;28;20202;-85
2022/11/30 05:36:55;;;;;;;82.05;31.50;;;6.60;99.90;;;;;;5052352;28;20052;-86
2022/11/30 05:39:21;;;;;;;65.30;27.08;;;6.60;99.90;;;;;;5022457;28;20338;-85
2022/11/30 05:41:46;;;;;;;74.40;28.70;;;6.70;99.90;;;;;;5025544;28;20054;-85
2022/11/30 05:44:13;;;;;;;70.35;27.20;;;6.70;99.90;;;;;;5036237;28;20044;-85
2022/11/30 05:46:40;;;;;;;64.30;26.30;;;6.60;99.90;;;;;;5023088;28;20037;-85
2022/11/30 05:49:05;;;;;;;68.93;25.75;;;6.60;99.90;;;;;;5028714;28;20384;-86
2022/11/30 05:51:31;;;;;;;74.07;27.23;;;6.70;99.90;;;;;;5020380;28;20485;-85
2022/11/30 05:53:58;;;;;;;66.68;25.60;;;6.60;99.90;;;;;;5034890;28;20067;-85
2022/11/30 05:56:24;;;;;;;63.63;25.98;;;6.70;99.90;;;;;;5037712;28;20052;-86
2022/11/30 05:58:49;;;;;;;64.28;25.40;;;6.70;99.90;;;;;;5036131;28;20051;-85
2022/11/30 06:01:22;;;;;;;67.22;25.70;;;6.60;99.90;;;;;;5021724;28;20328;-85
2022/11/30 06:03:48;;;;;;;56.65;24.42;;;6.60;99.90;;;;;;5052493;28;20479;-85
2022/11/30 06:06:13;;;;;;;65.38;25.88;;;6.70;99.90;;;;;;5068002;28;20045;-86
2022/11/30 06:08:39;;;;;;;60.95;22.50;;;6.60;99.90;;;;;;5021069;28;20492;-84
2022/11/30 06:11:05;;;;;;;56.72;22.98;;;6.60;99.90;;;;;;5033561;28;20041;-85
2022/11/30 06:13:33;;;;;;;54.97;22.00;;;6.50;99.90;;;;;;5050473;28;20072;-85
2022/11/30 06:16:00;;;;;;;72.32;28.63;;;6.60;99.90;;;;;;5048689;28;20037;-85
2022/11/30 06:18:26;;;;;;;58.15;24.60;;;6.40;99.90;;;;;;5035541;28;20033;-86
2022/11/30 06:20:51;;;;;;;59.38;26.77;;;6.50;99.90;;;;;;5048284;28;20479;-85
2022/11/30 06:23:17;;;;;;;54.33;22.90;;;6.50;99.90;;;;;;5018539;28;20256;-84
2022/11/30 06:25:43;;;;;;;54.63;23.20;;;6.40;99.90;;;;;;5019603;28;20048;-85
2022/11/30 06:28:09;;;;;;;49.40;23.23;;;6.40;99.90;;;;;;5017876;28;20033;-86
2022/11/30 06:30:35;;;;;;;56.67;22.85;;;6.40;99.90;;;;;;5024554;28;20094;-85
2022/11/30 06:33:01;;;;;;;44.85;18.30;;;6.40;99.90;;;;;;5019480;28;20041;-85
2022/11/30 06:35:30;;;;;;;43.33;18.42;;;6.30;99.90;;;;;;5034987;28;20106;-85
2022/11/30 06:37:56;;;;;;;52.05;18.15;;;6.40;99.90;;;;;;5020784;28;20162;-85
2022/11/30 06:40:22;;;;;;;41.15;18.63;;;6.40;99.90;;;;;;5066153;28;20513;-85
2022/11/30 06:42:47;;;;;;;41.75;19.00;;;6.30;99.90;;;;;;5023101;28;20028;-84
2022/11/30 06:45:13;;;;;;;39.50;17.40;;;6.40;99.90;;;;;;5035027;28;20051;-85
2022/11/30 06:47:39;;;;;;;44.28;16.95;;;6.30;99.90;;;;;;5020021;28;20528;-86
2022/11/30 06:50:05;;;;;;;45.25;18.27;;;6.30;99.90;;;;;;5028051;28;20083;-85
2022/11/30 06:52:34;;;;;;;43.80;16.85;;;6.40;99.90;;;;;;5018853;28;20028;-85
2022/11/30 06:55:00;;;;;;;42.42;19.73;;;6.30;99.90;;;;;;5015096;28;20103;-85
2022/11/30 06:57:29;;;;;;;40.97;20.15;;;6.30;99.90;;;;;;5067421;28;20159;-85
2022/11/30 06:59:55;;;;;;;37.13;18.00;;;6.40;99.90;;;;;;5035867;28;20049;-86
2022/11/30 07:02:21;;;;;;;39.92;18.85;;;6.30;99.90;;;;;;5021067;28;20039;-85
2022/11/30 07:04:47;;;;;;;34.22;18.70;;;6.30;99.90;;;;;;5018545;28;20458;-85
2022/11/30 07:07:13;;;;;;;35.65;18.13;;;6.40;99.90;;;;;;5020490;28;20472;-85
2022/11/30 07:09:38;;;;;;;35.97;18.50;;;6.30;99.90;;;;;;5018371;28;20097;-85
2022/11/30 07:12:04;;;;;;;36.03;17.45;;;6.30;99.90;;;;;;5032153;28;20771;-85
2022/11/30 07:14:30;;;;;;;38.85;19.05;;;6.30;99.90;;;;;;5018734;28;20060;-85
2022/11/30 07:16:56;;;;;;;35.75;18.95;;;6.20;99.90;;;;;;5024004;28;20037;-85
2022/11/30 07:19:22;;;;;;;34.83;18.75;;;6.30;99.90;;;;;;5032103;28;20045;-86
2022/11/30 07:21:48;;;;;;;31.77;16.77;;;6.30;99.90;;;;;;5021243;28;20040;-86
2022/11/30 07:26:59;;;;;;;34.15;16.98;;;6.30;99.90;;;;;;5033539;28;20260;-86
2022/11/30 07:29:25;;;;;;;33.85;18.88;;;6.30;99.90;;;;;;5016038;28;20044;-84
2022/11/30 07:31:51;;;;;;;38.13;18.55;;;6.30;99.90;;;;;;5034423;28;20048;-86
2022/11/30 07:34:18;;;;;;;36.00;17.60;;;6.30;99.90;;;;;;5018514;28;20434;-85
2022/11/30 07:36:44;;;;;;;31.13;17.38;;;6.30;99.90;;;;;;5021453;28;20093;-84
2022/11/30 07:39:13;;;;;;;32.58;17.23;;;6.40;99.90;;;;;;5019216;28;20037;-86
2022/11/30 07:41:40;;;;;;;33.50;17.67;;;6.40;99.90;;;;;;5049823;28;20048;-85
2022/11/30 07:44:07;;;;;;;33.95;18.35;;;6.30;99.90;;;;;;5020656;28;20128;-85
2022/11/30 07:46:34;;;;;;;28.55;15.98;;;6.30;99.90;;;;;;5017951;28;20551;-85
2022/11/30 07:49:09;;;;;;;28.05;16.35;;;6.40;99.90;;;;;;5034116;28;20080;-86
2022/11/30 07:51:35;;;;;;;;;;;6.40;99.90;;;;;;5066594;28;20479;-86
2022/11/30 07:54:01;;;;;;;25.67;15.55;;;6.30;99.90;;;;;;5063757;28;19932;-85
2022/11/30 07:56:27;;;;;;;24.90;15.82;;;6.20;99.90;;;;;;5017697;28;20045;-85
2022/11/30 07:58:56;;;;;;;25.10;16.10;;;6.30;99.90;;;;;;5067600;28;20048;-86
2022/11/30 08:01:24;;;;;;;26.52;15.90;;;6.20;99.90;;;;;;5017071;28;20049;-84
2022/11/30 08:03:51;;;;;;;27.30;17.17;;;6.20;99.90;;;;;;5050106;28;20503;-86
2022/11/30 08:06:19;;;;;;;24.15;16.25;;;6.30;99.90;;;;;;5022812;28;20112;-85
2022/11/30 08:08:47;;;;;;;25.75;15.82;;;6.20;99.90;;;;;;5018245;28;20049;-85
2022/11/30 08:11:16;;;;;;;24.48;16.15;;;6.30;99.90;;;;;;5016990;28;20029;-85
2022/11/30 08:13:42;;;;;;;25.85;16.55;;;6.30;99.90;;;;;;5031620;28;20111;-85
2022/11/30 08:16:13;;;;;;;27.38;16.67;;;6.20;99.90;;;;;;5033481;28;20408;-85
2022/11/30 08:18:42;;;;;;;25.58;16.55;;;6.30;99.90;;;;;;5017505;28;20480;-86
2022/11/30 08:21:09;;;;;;;25.05;16.75;;;6.30;99.90;;;;;;5019674;28;20431;-86
2022/11/30 08:23:38;;;;;;;27.23;17.67;;;6.30;99.90;;;;;;5033161;28;20037;-85
2022/11/30 08:26:06;;;;;;;27.85;17.67;;;6.30;99.90;;;;;;5017029;28;20084;-84
2022/11/30 08:28:37;;;;;;;27.65;17.25;;;6.30;99.90;;;;;;5016495;28;20474;-85
2022/11/30 08:31:06;;;;;;;29.00;17.52;;;6.20;99.90;;;;;;5022038;28;20108;-86
2022/11/30 08:33:32;;;;;;;26.92;16.63;;;6.30;99.90;;;;;;5048667;28;20481;-86
2022/11/30 08:36:11;;;;;;;27.85;18.15;;;6.30;99.90;;;;;;5066836;28;20094;-85
2022/11/30 08:38:38;;;;;;;29.63;17.92;;;6.40;99.90;;;;;;5050759;28;20045;-85
2022/11/30 08:41:05;;;;;;;27.48;17.60;;;6.40;99.90;;;;;;5019829;28;20284;-85
2022/11/30 08:43:31;;;;;;;30.98;18.33;;;6.40;99.90;;;;;;5049972;28;20144;-85
2022/11/30 08:45:57;;;;;;;31.20;17.60;;;6.40;99.90;;;;;;5021413;28;20159;-86
2022/11/30 08:48:23;;;;;;;29.20;18.13;;;6.40;99.90;;;;;;5020751;28;20736;-85
2022/11/30 08:50:48;;;;;;;27.65;17.52;;;6.50;99.90;;;;;;5019797;28;20051;-85
2022/11/30 08:53:14;;;;;;;29.00;18.33;;;6.50;99.90;;;;;;5019605;28;20065;-84
2022/11/30 08:55:40;;;;;;;30.25;18.17;;;6.40;99.90;;;;;;5020665;28;20052;-85
2022/11/30 08:58:06;;;;;;;28.67;18.27;;;6.50;99.90;;;;;;5021291;28;20048;-86
2022/11/30 09:00:35;;;;;;;28.98;17.83;;;6.50;99.90;;;;;;5035628;28;20078;-86
2022/11/30 09:03:00;;;;;;;29.58;17.85;;;6.60;99.90;;;;;;5023200;28;20045;-84
2022/11/30 09:05:29;;;;;;;31.85;19.33;;;6.50;99.90;;;;;;5039672;28;20044;-85
2022/11/30 09:07:55;;;;;;;28.73;18.10;;;6.50;99.90;;;;;;5050597;28;20025;-85
2022/11/30 09:10:20;;;;;;;28.20;18.05;;;6.50;99.90;;;;;;5037867;28;20257;-85
2022/11/30 09:12:46;;;;;;;30.92;17.63;;;6.60;99.90;;;;;;5017469;28;20045;-84
2022/11/30 09:15:14;;;;;;;30.17;17.80;;;6.60;99.90;;;;;;5025182;28;20040;-85
2022/11/30 09:17:40;;;;;;;31.08;18.77;;;6.60;99.90;;;;;;5053166;28;20052;-85
2022/11/30 09:20:06;;;;;;;30.40;17.85;;;6.50;99.90;;;;;;5022390;28;20037;-85
2022/11/30 09:22:32;;;;;;;32.97;19.58;;;6.60;99.90;;;;;;5066292;28;20839;-85
2022/11/30 09:24:58;;;;;;;30.58;18.45;;;6.50;99.90;;;;;;5066619;28;20041;-85
2022/11/30 09:27:29;;;;;;;30.30;18.92;;;6.60;99.90;;;;;;5035723;28;20036;-85
2022/11/30 09:29:54;;;;;;;29.65;18.27;;;6.60;99.90;;;;;;5022253;28;20120;-85
2022/11/30 09:32:20;;;;;;;27.98;17.80;;;6.60;99.90;;;;;;5021764;28;20529;-85
2022/11/30 09:34:46;;;;;;;29.08;17.40;;;6.50;99.90;;;;;;5020678;28;20452;-85
2022/11/30 09:37:11;;;;;;;31.13;18.58;;;6.60;99.90;;;;;;5019054;28;20041;-86
2022/11/30 09:39:37;;;;;;;30.45;18.40;;;6.70;99.90;;;;;;5065177;28;20064;-85
2022/11/30 09:42:23;;;;;;;32.20;19.23;;;6.70;99.90;;;;;;5052544;28;20395;-85
2022/11/30 09:44:57;;;;;;;29.40;18.20;;;6.80;99.90;;;;;;5018708;28;20072;-84
2022/11/30 09:47:31;;;;;;;32.35;18.60;;;6.80;99.90;;;;;;5035360;28;20037;-85
2022/11/30 09:50:03;;;;;;;30.27;18.95;;;6.90;99.90;;;;;;5033815;28;20045;-85
2022/11/30 09:52:36;;;;;;;30.52;19.15;;;6.90;99.90;;;;;;5025811;28;20087;-85
2022/11/30 09:55:09;;;;;;;34.33;19.65;;;6.80;99.90;;;;;;5030864;28;20063;-85
2022/11/30 09:57:45;;;;;;;29.85;18.20;;;6.90;99.90;;;;;;5014987;28;20037;-85
2022/11/30 10:00:17;;;;;;;34.42;19.30;;;6.80;99.90;;;;;;5049321;28;20500;-85
2022/11/30 10:02:44;;;;;;;35.33;19.73;;;6.80;99.90;;;;;;5054493;28;20523;-85
2022/11/30 10:05:34;;;;;;;35.80;20.00;;;6.80;99.90;;;;;;5022246;28;20316;-85
2022/11/30 10:08:09;;;;;;;34.95;20.85;;;6.80;99.90;;;;;;5023098;28;20072;-85
2022/11/30 10:10:39;;;;;;;;;;;6.70;99.90;;;;;;5023674;28;20444;-85
2022/11/30 10:13:16;;;;;;;36.70;20.15;;;6.80;99.90;;;;;;5032205;28;19924;-85
2022/11/30 10:16:03;;;;;;;37.13;21.23;;;6.70;99.90;;;;;;5038798;28;20316;-85
2022/11/30 10:18:42;;;;;;;33.72;19.67;;;6.70;99.90;;;;;;5016820;28;20052;-85
2022/11/30 10:21:33;;;;;;;38.47;21.10;;;6.70;99.90;;;;;;5049080;28;20056;-85
2022/11/30 10:24:17;;;;;;;35.10;21.35;;;6.80;99.90;;;;;;5018558;28;20048;-85
2022/11/30 10:26:54;;;;;;;37.25;21.25;;;6.80;99.90;;;;;;5051921;28;20045;-85
2022/11/30 10:29:41;;;;;;;39.97;21.17;;;6.80;99.90;;;;;;5019899;28;20530;-86
2022/11/30 10:32:32;;;;;;;36.60;20.80;;;6.90;99.90;;;;;;5067970;28;20373;-85
2022/11/30 10:35:12;;;;;;;40.30;21.83;;;6.90;99.90;;;;;;5049983;28;20044;-86
2022/11/30 10:37:38;;;;;;;32.92;19.73;;;6.80;99.90;;;;;;5050226;28;20048;-85
2022/11/30 10:40:08;;;;;;;36.40;20.80;;;6.80;99.90;;;;;;5017999;28;20465;-85
2022/11/30 10:42:52;;;;;;;35.38;21.08;;;6.80;99.90;;;;;;5035522;28;20072;-86
2022/11/30 10:45:23;;;;;;;38.00;21.63;;;6.70;99.90;;;;;;5050517;28;20041;-85
2022/11/30 10:47:56;;;;;;;32.30;19.42;;;6.70;99.90;;;;;;5019582;28;20044;-85
2022/11/30 10:50:26;;;;;;;33.58;20.08;;;6.70;99.90;;;;;;5050040;28;20117;-86
2022/11/30 10:52:56;;;;;;;37.17;20.95;;;6.70;99.90;;;;;;5033877;28;20051;-85
2022/11/30 10:55:25;;;;;;;34.97;20.23;;;6.70;99.90;;;;;;5032868;28;20053;-85
2022/11/30 10:58:00;;;;;;;38.10;20.70;;;6.80;99.90;;;;;;5048917;28;20048;-84
2022/11/30 11:00:25;;;;;;;;;;;6.80;99.90;;;;;;5022073;28;20040;-85
2022/11/30 11:02:52;;;;;;;35.47;20.17;;;6.90;99.90;;;;;;5016254;28;19990;-85
2022/11/30 11:05:21;;;;;;;34.22;20.27;;;6.80;99.90;;;;;;5047617;28;20041;-85
2022/11/30 11:07:51;;;;;;;33.08;20.55;;;6.70;99.90;;;;;;5017092;28;20394;-85
2022/11/30 11:10:44;;;;;;;31.38;19.77;;;6.70;99.90;;;;;;5063997;28;20044;-85
2022/11/30 11:13:37;;;;;;;31.98;21.15;;;6.80;99.90;;;;;;5017214;28;20048;-85
2022/11/30 11:16:06;;;;;;;33.78;19.10;;;6.70;99.90;;;;;;5033456;28;20083;-84
2022/11/30 11:18:33;;;;;;;31.35;19.30;;;6.80;99.90;;;;;;5066749;28;20079;-86
2022/11/30 11:21:15;;;;;;;31.52;19.52;;;6.80;99.90;;;;;;5048396;28;20040;-85
2022/11/30 11:23:43;;;;;;;31.65;19.42;;;6.80;99.90;;;;;;5014824;28;20041;-86
2022/11/30 11:26:19;;;;;;;32.53;19.70;;;6.80;99.90;;;;;;5015765;28;20523;-85
2022/11/30 11:28:48;;;;;;;33.00;20.23;;;6.90;99.90;;;;;;5019770;28;20049;-85
2022/11/30 11:31:29;;;;;;;32.88;19.52;;;6.90;99.90;;;;;;5018484;28;20048;-85
2022/11/30 11:33:55;;;;;;;32.08;20.23;;;7.00;99.90;;;;;;5015805;28;20041;-85
2022/11/30 11:36:27;;;;;;;32.58;20.02;;;6.90;99.90;;;;;;5051488;28;20464;-85
2022/11/30 11:38:53;;;;;;;33.47;20.45;;;7.00;99.90;;;;;;5032565;28;20628;-86
2022/11/30 11:41:34;;;;;;;38.05;20.52;;;7.20;99.90;;;;;;5017670;28;20037;-84
2022/11/30 11:44:08;;;;;;;33.00;19.13;;;7.10;99.90;;;;;;5015698;28;20135;-85
2022/11/30 11:46:56;;;;;;;28.38;17.73;;;7.00;99.90;;;;;;5047606;28;20044;-85
2022/11/30 11:49:28;;;;;;;33.22;19.02;;;6.90;99.90;;;;;;5047291;28;20098;-85
2022/11/30 11:52:22;;;;;;;30.95;18.77;;;6.90;99.90;;;;;;5016454;28;20037;-85
2022/11/30 11:54:59;;;;;;;32.70;19.45;;;6.90;99.90;;;;;;5014329;28;20072;-85
2022/11/30 11:57:52;;;;;;;34.72;20.55;;;6.80;99.90;;;;;;5032163;28;20037;-85
2022/11/30 12:00:20;;;;;;;33.13;20.33;;;6.80;99.90;;;;;;5015655;28;20373;-84
2022/11/30 12:03:03;;;;;;;34.67;20.60;;;6.80;99.90;;;;;;5015798;28;20041;-85
2022/11/30 12:05:52;;;;;;;35.60;21.08;;;6.80;99.90;;;;;;5046409;28;20072;-86
2022/11/30 12:08:40;;;;;;;34.10;20.83;;;6.80;99.90;;;;;;5048103;28;20075;-85
2022/11/30 12:11:26;;;;;;;33.15;20.35;;;6.70;99.90;;;;;;5019893;28;20029;-85
2022/11/30 12:13:54;;;;;;;34.47;21.10;;;6.90;99.90;;;;;;5016549;28;20029;-85
2022/11/30 12:16:52;;;;;;;33.15;21.80;;;6.80;99.90;;;;;;5031392;28;20040;-84
2022/11/30 12:19:48;;;;;;;34.83;20.73;;;6.70;99.90;;;;;;5049961;28;20044;-85
2022/11/30 12:22:17;;;;;;;;;;;6.60;99.90;;;;;;5018017;28;20052;-85
2022/11/30 12:25:25;;;;;;;35.63;22.17;;;6.70;99.90;;;;;;5052977;28;19935;-86
2022/11/30 12:28:15;;;;;;;35.17;21.77;;;6.60;99.90;;;;;;5019726;28;20290;-85
2022/11/30 12:30:44;;;;;;;42.28;22.33;;;6.50;99.90;;;;;;5038608;28;20040;-85
2022/11/30 12:33:13;;;;;;;39.25;22.13;;;6.60;99.90;;;;;;5023315;28;20041;-85
2022/11/30 12:36:02;;;;;;;40.65;24.45;;;6.50;99.90;;;;;;5053269;28;20033;-84
2022/11/30 12:38:57;;;;;;;39.25;22.92;;;6.40;99.90;;;;;;5021185;28;20149;-85
2022/11/30 12:41:29;;;;;;;37.80;21.83;;;6.50;99.90;;;;;;5019195;28;20032;-86
2022/11/30 12:44:04;;;;;;;37.75;22.85;;;6.50;99.90;;;;;;5037583;28;20037;-87
2022/11/30 12:47:07;;;;;;;37.15;23.02;;;6.50;99.90;;;;;;5051488;28;20041;-85
2022/11/30 12:49:43;;;;;;;38.80;22.08;;;6.50;99.90;;;;;;5050857;28;20475;-85
2022/11/30 12:52:24;;;;;;;40.28;22.45;;;6.40;99.90;;;;;;5068255;28;20044;-84
2022/11/30 12:55:20;;;;;;;40.65;23.08;;;6.50;99.90;;;;;;5011235;28;20149;-86